createdAt,value
2022-09-09T00:00:36.587Z,48.81
2022-09-09T00:03:14.274Z,49.04
2022-09-09T00:05:53.720Z,48.80
2022-09-09T00:08:26.996Z,48.76
2022-09-09T00:11:03.861Z,48.73
2022-09-09T00:13:41.936Z,48.87
2022-09-09T00:16:20.211Z,49.14
2022-09-09T00:18:59.740Z,49.14
2022-09-09T00:21:35.338Z,48.97
2022-09-09T00:24:14.768Z,48.97
2022-09-09T00:26:47.485Z,49.40
2022-09-09T00:29:27.879Z,49.25
2022-09-09T00:32:00.444Z,49.23
2022-09-09T00:34:30.133Z,49.32
2022-09-09T00:36:59.613Z,49.19
2022-09-09T00:39:42.904Z,49.19
2022-09-09T00:42:18.591Z,49.15
2022-09-09T00:45:01.911Z,49.46
2022-09-09T00:47:47.122Z,49.27
2022-09-09T00:50:35.797Z,49.38
2022-09-09T00:53:26.525Z,49.54
2022-09-09T00:56:08.299Z,49.13
2022-09-09T00:58:36.749Z,49.05
2022-09-09T01:01:12.312Z,49.39
2022-09-09T01:03:48.783Z,49.16
2022-09-09T01:06:27.222Z,48.96
2022-09-09T01:09:16.948Z,49.25
2022-09-09T01:11:57.734Z,49.00
2022-09-09T01:14:47.131Z,49.22
2022-09-09T01:17:23.970Z,49.23
2022-09-09T01:20:05.430Z,49.14
2022-09-09T01:22:42.299Z,49.08
2022-09-09T01:25:30.597Z,49.25
2022-09-09T01:28:04.146Z,48.85
2022-09-09T01:30:35.279Z,48.74
2022-09-09T01:33:04.331Z,48.82
2022-09-09T01:35:45.190Z,48.66
2022-09-09T01:38:14.272Z,48.50
2022-09-09T01:40:42.975Z,48.55
2022-09-09T01:43:13.127Z,48.90
2022-09-09T01:45:43.714Z,48.81
2022-09-09T01:48:12.208Z,48.90
2022-09-09T01:50:40.766Z,49.01
2022-09-09T01:53:09.534Z,48.61
2022-09-09T01:55:42.454Z,48.85
2022-09-09T01:58:30.413Z,48.78
2022-09-09T02:01:08.341Z,48.82
2022-09-09T02:03:38.340Z,48.99
2022-09-09T02:06:20.756Z,48.80
2022-09-09T02:08:52.110Z,48.60
2022-09-09T02:11:23.771Z,48.76
2022-09-09T02:13:57.617Z,48.69
2022-09-09T02:16:31.059Z,48.67
2022-09-09T02:19:07.041Z,48.98
2022-09-09T02:21:37.812Z,48.99
2022-09-09T02:24:11.373Z,48.65
2022-09-09T02:26:46.499Z,48.73
2022-09-09T02:29:20.988Z,48.84
2022-09-09T02:31:51.790Z,48.76
2022-09-09T02:34:25.232Z,48.80
2022-09-09T02:36:57.666Z,49.14
2022-09-09T02:39:26.008Z,49.02
2022-09-09T02:41:54.875Z,49.13
2022-09-09T02:44:24.583Z,48.99
2022-09-09T02:47:18.652Z,49.21
2022-09-09T02:50:03.291Z,49.33
2022-09-09T02:52:45.219Z,49.48
2022-09-09T02:55:24.686Z,49.29
2022-09-09T02:57:54.126Z,49.23
2022-09-09T03:00:29.164Z,49.42
2022-09-09T03:02:58.047Z,49.55
2022-09-09T03:05:27.287Z,49.56
2022-09-09T03:07:55.680Z,49.35
2022-09-09T03:10:24.216Z,49.31
2022-09-09T03:12:52.586Z,49.75
2022-09-09T03:15:21.662Z,49.41
2022-09-09T03:17:52.104Z,49.75
2022-09-09T03:20:20.597Z,49.71
2022-09-09T03:22:48.997Z,49.56
2022-09-09T03:25:17.568Z,49.48
2022-09-09T03:27:45.913Z,49.70
2022-09-09T03:30:15.462Z,49.92
2022-09-09T03:32:48.326Z,49.88
2022-09-09T03:35:19.129Z,49.64
2022-09-09T03:37:47.605Z,49.78
2022-09-09T03:40:16.715Z,50.06
2022-09-09T03:42:45.108Z,49.74
2022-09-09T03:45:13.508Z,49.79
2022-09-09T03:47:41.932Z,50.21
2022-09-09T03:50:13.824Z,50.36
2022-09-09T03:52:44.785Z,50.24
2022-09-09T03:55:13.293Z,50.40
2022-09-09T03:57:41.610Z,50.44
2022-09-09T04:00:12.939Z,50.40
2022-09-09T04:02:41.265Z,50.35
2022-09-09T04:05:11.048Z,50.46
2022-09-09T04:07:39.600Z,50.43
2022-09-09T04:10:10.992Z,50.36
2022-09-09T04:12:39.343Z,50.77
2022-09-09T04:15:09.486Z,50.76
2022-09-09T04:17:38.368Z,51.02
2022-09-09T04:20:08.719Z,50.92
2022-09-09T04:22:37.023Z,50.76
2022-09-09T04:25:06.780Z,51.08
2022-09-09T04:27:36.513Z,51.10
2022-09-09T04:30:06.223Z,51.04
2022-09-09T04:32:35.420Z,51.03
2022-09-09T04:35:03.870Z,51.11
2022-09-09T04:37:32.231Z,51.27
2022-09-09T04:40:03.840Z,51.37
2022-09-09T04:42:32.213Z,51.49
2022-09-09T04:45:02.627Z,51.62
2022-09-09T04:47:31.057Z,51.37
2022-09-09T04:49:59.419Z,51.51
2022-09-09T04:52:27.704Z,51.71
2022-09-09T04:54:56.210Z,51.52
2022-09-09T04:57:25.288Z,51.76
2022-09-09T04:59:53.601Z,51.58
2022-09-09T05:02:23.341Z,51.71
2022-09-09T05:04:51.748Z,52.06
2022-09-09T05:07:20.045Z,51.93
2022-09-09T05:09:50.342Z,52.17
2022-09-09T05:12:18.724Z,52.14
2022-09-09T05:14:47.060Z,51.95
2022-09-09T05:17:17.380Z,51.81
2022-09-09T05:19:47.222Z,52.07
2022-09-09T05:22:15.548Z,52.01
2022-09-09T05:24:43.891Z,52.01
2022-09-09T05:27:16.202Z,52.30
2022-09-09T05:29:45.702Z,51.95
2022-09-09T05:32:15.622Z,52.21
2022-09-09T05:34:44.031Z,51.84
2022-09-09T05:37:13.738Z,52.18
2022-09-09T05:39:42.158Z,52.09
2022-09-09T05:42:10.549Z,52.03
2022-09-09T05:44:39.318Z,52.18
2022-09-09T05:47:09.143Z,51.78
2022-09-09T05:49:37.669Z,51.84
2022-09-09T05:52:07.184Z,51.43
2022-09-09T05:54:38.598Z,51.91
2022-09-09T05:57:07.068Z,51.84
2022-09-09T05:59:35.358Z,51.51
2022-09-09T06:02:03.865Z,51.55
2022-09-09T06:04:32.390Z,51.11
2022-09-09T06:07:00.769Z,51.00
2022-09-09T06:09:29.419Z,50.85
2022-09-09T06:11:59.768Z,50.99
2022-09-09T06:14:28.423Z,51.18
2022-09-09T06:16:57.743Z,50.66
2022-09-09T06:19:27.939Z,50.86
2022-09-09T06:21:56.254Z,50.85
2022-09-09T06:24:24.794Z,50.92
2022-09-09T06:26:53.157Z,50.91
2022-09-09T06:29:23.268Z,50.76
2022-09-09T06:31:52.070Z,50.57
2022-09-09T06:34:20.468Z,50.43
2022-09-09T06:36:48.813Z,50.07
2022-09-09T06:39:17.103Z,49.93
2022-09-09T06:41:45.419Z,50.03
2022-09-09T06:44:13.843Z,49.68
2022-09-09T06:46:44.483Z,49.68
2022-09-09T06:49:12.991Z,49.47
2022-09-09T06:51:44.084Z,49.01
2022-09-09T06:54:13.612Z,48.93
2022-09-09T06:56:44.614Z,48.91
2022-09-09T06:59:14.084Z,48.82
2022-09-09T07:01:45.804Z,48.51
2022-09-09T07:04:14.662Z,48.29
2022-09-09T07:06:45.434Z,48.44
2022-09-09T07:09:17.245Z,48.01
2022-09-09T07:11:48.207Z,48.05
2022-09-09T07:14:17.902Z,47.43
2022-09-09T07:16:48.101Z,47.38
2022-09-09T07:19:16.784Z,47.56
2022-09-09T07:21:46.223Z,47.07
2022-09-09T07:24:14.581Z,46.89
2022-09-09T07:26:43.131Z,46.59
2022-09-09T07:29:19.876Z,46.58
2022-09-09T07:31:50.394Z,46.37
2022-09-09T07:34:23.013Z,46.27
2022-09-09T07:36:51.401Z,45.97
2022-09-09T07:39:19.831Z,45.98
2022-09-09T07:41:50.158Z,45.97
2022-09-09T07:44:22.382Z,45.75
2022-09-09T07:46:52.375Z,45.71
2022-09-09T07:49:27.420Z,45.44
2022-09-09T07:51:58.365Z,45.65
2022-09-09T07:54:27.269Z,45.58
2022-09-09T07:56:55.932Z,45.61
2022-09-09T07:59:25.410Z,45.27
2022-09-09T08:01:55.945Z,45.20
2022-09-09T08:04:27.159Z,45.03
2022-09-09T08:06:59.397Z,45.02
2022-09-09T08:09:30.136Z,45.02
2022-09-09T08:11:59.744Z,44.60
2022-09-09T08:14:28.811Z,44.69
2022-09-09T08:16:59.225Z,44.59
2022-09-09T08:19:30.355Z,44.28
2022-09-09T08:21:58.827Z,43.64
2022-09-09T08:24:27.234Z,43.60
2022-09-09T08:26:55.779Z,43.28
2022-09-09T08:29:24.501Z,43.03
2022-09-09T08:31:55.464Z,42.45
2022-09-09T08:34:27.971Z,42.14
2022-09-09T08:36:56.932Z,41.34
2022-09-09T08:39:25.515Z,40.81
2022-09-09T08:42:36.077Z,40.90
2022-09-09T08:45:26.946Z,40.60
2022-09-09T08:48:26.797Z,41.07
2022-09-09T08:51:02.955Z,40.34
2022-09-09T08:53:40.314Z,39.99
2022-09-09T08:56:16.321Z,39.98
2022-09-09T08:58:50.910Z,39.56
2022-09-09T09:01:42.267Z,39.68
2022-09-09T09:04:30.291Z,39.60
2022-09-09T09:07:12.752Z,39.49
2022-09-09T09:09:50.587Z,39.25
2022-09-09T09:12:23.802Z,38.79
2022-09-09T09:14:52.657Z,38.12
2022-09-09T09:17:23.721Z,37.98
2022-09-09T09:19:52.742Z,37.95
2022-09-09T09:22:25.570Z,37.86
2022-09-09T09:24:56.787Z,37.63
2022-09-09T09:27:35.354Z,37.44
2022-09-09T09:30:25.616Z,37.46
2022-09-09T09:33:02.685Z,37.13
2022-09-09T09:35:31.216Z,36.73
2022-09-09T09:40:54.121Z,35.85
2022-09-09T09:43:28.640Z,35.48
2022-09-09T09:46:17.762Z,35.13
2022-09-09T09:48:47.412Z,35.19
2022-09-09T09:51:26.188Z,35.09
2022-09-09T09:53:56.918Z,34.75
2022-09-09T09:56:31.547Z,34.95
2022-09-09T09:59:03.665Z,34.81
2022-09-09T10:01:38.396Z,34.82
2022-09-09T10:04:21.225Z,35.05
2022-09-09T10:06:49.954Z,34.92
2022-09-09T10:09:27.408Z,34.77
2022-09-09T10:12:06.310Z,34.80
2022-09-09T10:14:42.174Z,34.53
2022-09-09T10:17:24.786Z,34.40
2022-09-09T10:20:12.857Z,34.26
2022-09-09T10:22:47.245Z,34.04
2022-09-09T10:25:41.115Z,33.69
2022-09-09T10:28:41.909Z,33.92
2022-09-09T10:31:23.910Z,33.89
2022-09-09T10:34:02.011Z,33.37
2022-09-09T10:36:30.900Z,32.90
2022-09-09T10:39:05.249Z,32.96
2022-09-09T10:41:51.617Z,32.82
2022-09-09T10:44:52.634Z,33.12
2022-09-09T10:47:52.058Z,32.83
2022-09-09T10:51:00.535Z,33.13
2022-09-09T10:53:55.696Z,32.90
2022-09-09T10:56:26.517Z,31.92
2022-09-09T10:59:02.369Z,31.85
2022-09-09T11:01:39.636Z,31.55
2022-09-09T11:04:15.912Z,31.28
2022-09-09T11:06:53.449Z,30.90
2022-09-09T11:09:27.037Z,30.99
2022-09-09T11:11:57.530Z,30.29
2022-09-09T11:14:36.811Z,30.56
2022-09-09T11:17:13.092Z,30.62
2022-09-09T11:19:44.694Z,30.12
2022-09-09T11:22:26.597Z,30.90
2022-09-09T11:25:01.249Z,30.33
2022-09-09T11:27:42.485Z,30.19
2022-09-09T11:30:55.521Z,30.44
2022-09-09T11:33:59.547Z,30.32
2022-09-09T11:36:58.502Z,30.28
2022-09-09T11:39:50.054Z,30.56
2022-09-09T11:42:22.586Z,29.51
2022-09-09T11:44:51.203Z,29.24
2022-09-09T11:47:30.396Z,29.42
2022-09-09T11:50:33.491Z,29.45
2022-09-09T11:53:24.869Z,28.52
2022-09-09T11:56:15.678Z,28.16
2022-09-09T11:58:56.272Z,27.80
2022-09-09T12:01:40.076Z,27.60
2022-09-09T12:04:38.813Z,27.50
2022-09-09T12:07:33.914Z,27.41
2022-09-09T12:10:08.075Z,27.20
2022-09-09T12:12:43.172Z,27.00
2022-09-09T12:15:30.994Z,27.07
2022-09-09T12:18:03.956Z,26.41
2022-09-09T12:20:39.914Z,25.96
2022-09-09T12:23:33.201Z,25.96
2022-09-09T12:26:13.454Z,25.52
2022-09-09T12:28:54.123Z,24.57
2022-09-09T12:31:29.473Z,24.31
2022-09-09T12:34:04.751Z,24.03
2022-09-09T12:36:35.880Z,23.77
2022-09-09T12:39:20.151Z,23.35
2022-09-09T12:41:58.423Z,23.47
2022-09-09T12:44:29.124Z,23.18
2022-09-09T12:47:00.787Z,23.48
2022-09-09T12:49:35.902Z,23.41
2022-09-09T12:52:10.960Z,23.53
2022-09-09T12:54:39.895Z,23.81
2022-09-09T12:57:14.522Z,23.82
2022-09-09T12:59:46.171Z,23.54
2022-09-09T13:02:24.087Z,23.67
2022-09-09T13:04:57.056Z,24.03
2022-09-09T13:07:27.470Z,24.42
2022-09-09T13:09:55.905Z,24.69
2022-09-09T13:12:26.036Z,24.70
2022-09-09T13:14:58.248Z,24.54
2022-09-09T13:17:30.154Z,25.21
2022-09-09T13:19:59.363Z,24.87
2022-09-09T13:22:35.406Z,25.15
2022-09-09T13:25:16.466Z,25.81
2022-09-09T13:27:55.015Z,26.05
2022-09-09T13:30:27.062Z,26.02
2022-09-09T13:33:25.716Z,26.13
2022-09-09T13:35:58.350Z,26.63
2022-09-09T13:38:30.319Z,26.65
2022-09-09T13:41:02.984Z,26.82
2022-09-09T13:43:36.067Z,26.91
2022-09-09T13:46:08.845Z,27.04
2022-09-09T13:48:37.354Z,27.05
2022-09-09T13:51:07.010Z,27.28
2022-09-09T13:53:36.920Z,27.35
2022-09-09T13:56:05.417Z,27.51
2022-09-09T13:58:33.884Z,27.50
2022-09-09T14:01:02.314Z,27.73
2022-09-09T14:03:31.203Z,27.67
2022-09-09T14:05:59.955Z,27.78
2022-09-09T14:08:38.205Z,27.90
2022-09-09T14:11:13.255Z,28.10
2022-09-09T14:13:41.737Z,27.86
2022-09-09T14:16:10.805Z,27.66
2022-09-09T14:18:40.023Z,28.04
2022-09-09T14:21:09.945Z,29.05
2022-09-09T14:23:39.209Z,29.82
2022-09-09T14:26:09.705Z,31.65
2022-09-09T14:28:56.724Z,32.69
2022-09-09T14:31:26.010Z,34.30
2022-09-09T14:33:54.703Z,34.88
2022-09-09T14:36:23.947Z,36.50
2022-09-09T14:38:53.011Z,37.17
2022-09-09T14:41:24.484Z,38.02
2022-09-09T14:43:53.312Z,38.04
2022-09-09T14:46:22.858Z,38.56
2022-09-09T14:48:52.045Z,39.55
2022-09-09T14:51:23.251Z,39.28
2022-09-09T14:53:55.121Z,39.33
2022-09-09T14:56:27.316Z,39.55
2022-09-09T14:58:57.210Z,39.94
2022-09-09T15:01:28.424Z,39.73
2022-09-09T15:04:00.014Z,40.23
2022-09-09T15:06:31.228Z,40.01
2022-09-09T15:09:00.102Z,40.18
2022-09-09T15:11:33.119Z,40.42
2022-09-09T15:14:01.590Z,40.17
2022-09-09T15:16:31.336Z,40.50
2022-09-09T15:19:02.121Z,40.36
2022-09-09T15:21:34.046Z,40.61
2022-09-09T15:24:02.720Z,40.77
2022-09-09T15:26:32.892Z,41.04
2022-09-09T15:29:01.722Z,41.33
2022-09-09T15:31:32.932Z,40.85
2022-09-09T15:34:03.785Z,40.68
2022-09-09T15:36:35.344Z,40.80
2022-09-09T15:39:10.729Z,40.76
2022-09-09T15:41:40.833Z,41.00
2022-09-09T15:44:11.290Z,40.91
2022-09-09T15:46:41.838Z,41.13
2022-09-09T15:49:12.580Z,41.32
2022-09-09T15:51:44.447Z,41.19
2022-09-09T15:54:15.265Z,41.59
2022-09-09T15:56:46.289Z,41.92
2022-09-09T15:59:15.882Z,42.10
2022-09-09T16:01:45.026Z,42.08
2022-09-09T16:04:13.763Z,42.43
2022-09-09T16:06:42.281Z,42.15
2022-09-09T16:09:11.329Z,42.40
2022-09-09T16:11:41.452Z,42.42
2022-09-09T16:14:12.111Z,42.17
2022-09-09T16:16:40.506Z,42.19
2022-09-09T16:19:12.590Z,42.14
2022-09-09T16:21:43.737Z,42.20
2022-09-09T16:24:14.893Z,42.46
2022-09-09T16:26:46.723Z,42.38
2022-09-09T16:29:18.685Z,43.00
2022-09-09T16:31:49.155Z,43.07
2022-09-09T16:34:19.698Z,43.42
2022-09-09T16:36:49.521Z,43.84
2022-09-09T16:39:19.800Z,44.11
2022-09-09T16:41:50.186Z,44.26
2022-09-09T16:44:20.512Z,44.13
2022-09-09T16:46:56.671Z,44.06
2022-09-09T16:49:26.637Z,44.17
2022-09-09T16:51:55.169Z,44.27
2022-09-09T16:54:24.504Z,44.25
2022-09-09T16:56:55.414Z,44.21
2022-09-09T16:59:25.778Z,44.06
2022-09-09T17:01:55.570Z,43.95
2022-09-09T17:04:27.610Z,43.90
2022-09-09T17:06:58.339Z,43.92
2022-09-09T17:09:30.363Z,43.87
2022-09-09T17:11:59.515Z,44.31
2022-09-09T17:14:32.165Z,44.54
2022-09-09T17:17:18.951Z,44.85
2022-09-09T17:19:51.585Z,44.72
2022-09-09T17:22:21.249Z,44.67
2022-09-09T17:24:49.760Z,44.66
2022-09-09T17:27:18.116Z,44.84
2022-09-09T17:29:47.946Z,45.17
2022-09-09T17:32:16.407Z,45.94
2022-09-09T17:34:44.878Z,47.07
2022-09-09T17:37:14.252Z,47.87
2022-09-09T17:39:42.721Z,48.63
2022-09-09T17:42:11.192Z,49.86
2022-09-09T17:44:40.029Z,50.42
2022-09-09T17:47:10.693Z,51.11
2022-09-09T17:49:39.521Z,52.25
2022-09-09T17:52:08.804Z,52.47
2022-09-09T17:54:37.224Z,52.96
2022-09-09T17:57:06.888Z,53.46
2022-09-09T17:59:35.348Z,53.78
2022-09-09T18:02:05.621Z,54.66
2022-09-09T18:04:37.138Z,55.13
2022-09-09T18:07:06.947Z,55.37
2022-09-09T18:09:35.289Z,55.50
2022-09-09T18:12:03.974Z,55.80
2022-09-09T18:14:34.139Z,55.84
2022-09-09T18:17:04.193Z,56.19
2022-09-09T18:19:35.663Z,55.71
2022-09-09T18:22:07.011Z,55.99
2022-09-09T18:24:36.541Z,55.85
2022-09-09T18:27:05.390Z,56.43
2022-09-09T18:29:34.571Z,56.31
2022-09-09T18:32:03.791Z,56.28
2022-09-09T18:34:32.470Z,56.15
2022-09-09T18:37:02.390Z,56.62
2022-09-09T18:39:32.186Z,56.39
2022-09-09T18:42:02.880Z,56.34
2022-09-09T18:44:34.625Z,56.49
2022-09-09T18:47:03.973Z,56.74
2022-09-09T18:49:33.551Z,56.86
2022-09-09T18:52:04.691Z,56.75
2022-09-09T18:54:34.987Z,57.05
2022-09-09T18:57:06.122Z,57.06
2022-09-09T18:59:34.904Z,57.81
2022-09-09T19:02:03.632Z,57.49
2022-09-09T19:04:33.365Z,57.49
2022-09-09T19:07:05.674Z,57.35
2022-09-09T19:09:36.817Z,57.84
2022-09-09T19:12:06.520Z,57.66
2022-09-09T19:14:35.592Z,57.26
2022-09-09T19:17:04.477Z,57.46
2022-09-09T19:19:34.522Z,56.89
2022-09-09T19:22:09.263Z,56.72
2022-09-09T19:24:37.928Z,56.73
2022-09-09T19:27:08.022Z,56.88
2022-09-09T19:29:40.183Z,56.59
2022-09-09T19:34:59.587Z,56.62
2022-09-09T19:37:29.558Z,56.56
2022-09-09T19:39:58.037Z,56.42
2022-09-09T19:42:26.994Z,56.28
2022-09-09T19:44:56.910Z,56.39
2022-09-09T19:47:25.626Z,56.25
2022-09-09T19:49:53.987Z,56.47
2022-09-09T19:52:25.532Z,56.55
2022-09-09T19:54:55.818Z,56.76
2022-09-09T19:57:24.254Z,56.40
2022-09-09T19:59:52.623Z,56.30
2022-09-09T20:02:21.304Z,56.62
2022-09-09T20:04:49.892Z,56.18
2022-09-09T20:07:19.211Z,56.57
2022-09-09T20:09:47.548Z,56.54
2022-09-09T20:12:18.039Z,56.67
2022-09-09T20:14:46.386Z,56.37
2022-09-09T20:17:14.846Z,56.52
2022-09-09T20:19:43.287Z,56.89
2022-09-09T20:22:12.176Z,57.07
2022-09-09T20:24:40.510Z,57.12
2022-09-09T20:27:09.534Z,56.55
2022-09-09T20:29:39.634Z,57.11
2022-09-09T20:32:08.722Z,57.22
2022-09-09T20:34:37.124Z,57.42
2022-09-09T20:37:05.998Z,57.62
2022-09-09T20:39:35.760Z,57.58
2022-09-09T20:42:04.628Z,57.36
2022-09-09T20:44:33.211Z,57.86
2022-09-09T20:47:06.648Z,58.11
2022-09-09T20:49:36.284Z,58.27
2022-09-09T20:52:05.112Z,58.64
2022-09-09T20:54:35.264Z,58.96
2022-09-09T20:57:04.207Z,59.19
2022-09-09T20:59:32.668Z,59.35
2022-09-09T21:02:03.424Z,59.15
2022-09-09T21:04:32.137Z,59.57
2022-09-09T21:07:00.592Z,59.56
2022-09-09T21:09:28.972Z,59.72
2022-09-09T21:11:57.335Z,59.80
2022-09-09T21:14:27.434Z,59.87
2022-09-09T21:16:55.809Z,60.19
2022-09-09T21:19:27.526Z,60.23
2022-09-09T21:21:57.155Z,60.35
2022-09-09T21:24:25.559Z,60.39
2022-09-09T21:26:55.301Z,60.32
2022-09-09T21:29:24.258Z,60.47
2022-09-09T21:31:55.908Z,60.47
2022-09-09T21:34:25.609Z,60.22
2022-09-09T21:36:54.058Z,60.84
2022-09-09T21:39:22.970Z,60.77
2022-09-09T21:41:51.404Z,60.56
2022-09-09T21:44:21.079Z,61.08
2022-09-09T21:46:49.425Z,60.93
2022-09-09T21:49:17.762Z,60.91
2022-09-09T21:51:48.084Z,61.07
2022-09-09T21:54:17.341Z,61.32
2022-09-09T21:56:45.860Z,61.27
2022-09-09T21:59:14.233Z,61.42
2022-09-09T22:01:43.208Z,61.27
2022-09-09T22:04:11.677Z,61.32
2022-09-09T22:06:40.063Z,61.28
2022-09-09T22:09:09.872Z,61.33
2022-09-09T22:11:38.191Z,61.62
2022-09-09T22:14:06.624Z,61.44
2022-09-09T22:16:35.051Z,61.79
2022-09-09T22:19:03.613Z,61.76
2022-09-09T22:21:34.092Z,61.67
2022-09-09T22:24:05.348Z,61.52
2022-09-09T22:26:37.685Z,61.58
2022-09-09T22:29:07.451Z,61.60
2022-09-09T22:31:37.143Z,61.74
2022-09-09T22:34:06.209Z,61.49
2022-09-09T22:36:36.831Z,61.74
2022-09-09T22:39:05.958Z,61.98
2022-09-09T22:41:35.672Z,61.45
2022-09-09T22:44:04.700Z,61.28
2022-09-09T22:46:33.095Z,61.49
2022-09-09T22:49:03.428Z,61.17
2022-09-09T22:51:34.791Z,61.19
2022-09-09T22:54:03.393Z,61.29
2022-09-09T22:56:31.837Z,61.10
2022-09-09T22:59:02.172Z,60.99
2022-09-09T23:01:30.683Z,60.85
2022-09-09T23:04:01.758Z,61.03
2022-09-09T23:06:31.770Z,61.45
2022-09-09T23:09:02.270Z,60.84
2022-09-09T23:11:33.792Z,60.81
2022-09-09T23:14:06.685Z,60.35
2022-09-09T23:16:39.844Z,60.10
2022-09-09T23:19:10.922Z,60.50
2022-09-09T23:21:42.189Z,60.46
2022-09-09T23:24:13.917Z,60.07
2022-09-09T23:26:43.638Z,60.21
2022-09-09T23:29:14.786Z,60.26
2022-09-09T23:31:45.502Z,60.19
2022-09-09T23:34:14.795Z,60.00
2022-09-09T23:36:43.791Z,59.51
2022-09-09T23:39:14.225Z,59.34
2022-09-09T23:41:42.852Z,59.23
2022-09-09T23:44:13.678Z,59.27
2022-09-09T23:46:42.331Z,59.26
2022-09-09T23:49:11.018Z,58.41
2022-09-09T23:51:39.945Z,58.09
2022-09-09T23:54:09.861Z,57.63
2022-09-09T23:56:42.400Z,57.32
2022-09-09T23:59:12.310Z,56.61
